Time;durP1;ratioP1;P1;durP2;ratioP2;P2;SDS_P1;SDS_P2;PMS_P1;PMS_P2;Temp;Humidity;BMP_temperature;BMP_pressure;BME280_temperature;BME280_humidity;BME280_pressure;Samples;Min_cycle;Max_cycle;Signal;HPM_P1;HPM_P2
2022/02/04 00:09:36;;;;;;;2.47;2.00;;;-0.90;99.90;-1.60;96595.00;;;;5073070;28;20954;-82
2022/02/04 00:22:08;;;;;;;4.07;2.60;;;-1.20;99.90;-1.80;96572.00;;;;5107543;28;20451;-82
2022/02/04 00:25:00;;;;;;;7.40;2.73;;;-1.20;99.90;-1.80;96562.00;;;;5109017;28;20429;-81
2022/02/04 00:27:52;;;;;;;3.67;2.07;;;-1.20;99.90;-1.90;96565.00;;;;5109476;28;20464;-80
2022/02/04 00:30:46;;;;;;;4.77;2.10;;;-1.30;99.90;-2.10;96566.00;;;;5109968;28;20421;-82
2022/02/04 00:33:37;;;;;;;5.03;2.80;;;-1.30;99.90;-2.00;96567.00;;;;5110782;28;20471;-83
2022/02/04 00:36:33;;;;;;;2.83;2.47;;;-1.30;99.90;-1.80;96555.00;;;;5099074;28;20473;-84
2022/02/04 00:39:26;;;;;;;1.07;0.83;;;-1.30;99.90;-2.30;96541.00;;;;5114414;28;20432;-81
2022/02/04 00:42:15;;;;;;;5.40;2.73;;;-1.20;99.90;-2.20;96535.00;;;;5113577;28;20439;-82
2022/02/04 00:45:17;;;;;;;1.90;1.20;;;-1.40;99.90;-2.50;96550.00;;;;5112426;28;20424;-82
2022/02/04 00:48:35;;;;;;;9.80;2.60;;;-1.50;99.90;-2.20;96546.00;;;;5113450;28;20513;-82
2022/02/04 00:51:33;;;;;;;4.30;2.30;;;-1.50;99.90;-2.10;96541.00;;;;5112881;28;20427;-83
2022/02/04 00:54:27;;;;;;;2.73;1.70;;;-1.50;99.90;-2.00;96538.00;;;;5103993;28;20449;-83
2022/02/04 00:57:31;;;;;;;3.27;2.60;;;-1.10;99.90;-2.10;96536.00;;;;5118760;28;20435;-83
2022/02/04 01:28:24;;;;;;;4.53;2.87;;;-1.00;99.90;-1.70;96506.00;;;;5113914;28;20460;-82
2022/02/04 01:31:18;;;;;;;7.77;3.43;;;-1.20;99.90;-1.60;96500.00;;;;5112026;28;20424;-84
2022/02/04 01:34:07;;;;;;;8.03;2.50;;;-1.30;99.90;-1.90;96502.00;;;;5113435;28;20448;-84
2022/02/04 01:36:56;;;;;;;3.07;2.77;;;-1.30;99.90;-1.60;96493.00;;;;5115336;28;20441;-84
2022/02/04 01:39:45;;;;;;;5.10;3.20;;;-1.30;99.90;-1.60;96485.00;;;;5100267;28;20429;-84
2022/02/04 01:42:33;;;;;;;2.83;2.63;;;-1.20;99.90;-1.60;96487.00;;;;5112790;28;20949;-84
2022/02/04 01:45:22;;;;;;;3.47;1.97;;;-1.20;99.90;-2.00;96476.00;;;;5111275;28;20433;-82
2022/02/04 01:48:12;;;;;;;3.00;2.33;;;-1.30;99.90;-1.70;96480.00;;;;5111078;28;20475;-84
2022/02/04 01:51:03;;;;;;;1.10;1.10;;;-1.20;99.90;-2.00;96485.00;;;;5112489;28;20804;-84
2022/02/04 01:53:51;;;;;;;5.07;3.20;;;0.00;99.90;-1.80;96469.00;;;;5110960;28;20977;-84
2022/02/04 01:56:40;;;;;;;3.67;2.90;;;-1.20;99.90;-1.70;96467.00;;;;5110301;28;20429;-83
2022/02/04 01:59:29;;;;;;;4.40;3.13;;;-1.20;99.90;-1.70;96468.00;;;;5112624;28;20429;-84
2022/02/04 02:02:18;;;;;;;4.37;2.00;;;-1.20;99.90;-1.80;96456.00;;;;5106747;28;20433;-83
2022/02/04 02:05:10;;;;;;;3.80;3.23;;;-0.80;99.90;-1.70;96462.00;;;;5106011;28;20957;-83
2022/02/04 02:08:06;;;;;;;3.50;2.97;;;-1.30;99.90;-1.60;96451.00;;;;5106677;28;20472;-83
2022/02/04 02:10:55;;;;;;;3.90;2.93;;;-0.40;99.90;-1.70;96458.00;;;;5111575;28;20423;-82
2022/02/04 02:13:49;;;;;;;5.73;2.80;;;-1.30;99.90;-1.70;96469.00;;;;5111125;28;20541;-84
2022/02/04 02:35:33;;;;;;;6.73;4.00;;;-1.00;99.90;-1.60;96429.00;;;;5110830;28;20429;-83
2022/02/04 02:44:41;;;;;;;5.17;3.07;;;-0.80;99.90;-1.60;96419.00;;;;5110218;28;20451;-83
2022/02/04 02:47:41;;;;;;;3.57;2.73;;;-1.10;99.90;-1.70;96414.00;;;;5112376;28;20984;-83
2022/02/04 02:50:58;;;;;;;4.47;2.97;;;-1.10;99.90;-1.80;96410.00;;;;5110906;28;20420;-83
2022/02/04 02:54:00;;;;;;;4.10;2.40;;;-1.30;99.90;-2.10;96413.00;;;;5107380;28;20445;-84
2022/02/04 02:57:23;;;;;;;3.87;2.63;;;-1.20;99.90;-2.30;96408.00;;;;5103636;28;20420;-84
2022/02/04 03:00:26;;;;;;;5.27;2.83;;;-1.40;99.90;-2.00;96407.00;;;;5110521;28;20948;-82
2022/02/04 03:03:17;;;;;;;4.83;2.87;;;-1.40;99.90;-1.90;96403.00;;;;5096856;28;20461;-83
2022/02/04 03:06:06;;;;;;;4.03;2.77;;;-1.40;99.90;-2.10;96389.00;;;;5099811;28;20441;-81
2022/02/04 03:08:57;;;;;;;2.70;2.07;;;-1.40;99.90;-2.30;96389.00;;;;5100444;28;20468;-84
2022/02/04 03:11:46;;;;;;;5.07;2.97;;;-1.40;99.90;-2.10;96391.00;;;;5107957;28;20429;-81
2022/02/04 03:14:35;;;;;;;3.60;2.60;;;-1.20;99.90;-2.10;96390.00;;;;5111009;28;20448;-83
2022/02/04 03:17:23;;;;;;;7.00;2.53;;;-1.40;99.90;-2.00;96396.00;;;;5101023;28;20942;-82
2022/02/04 03:20:14;;;;;;;8.93;3.27;;;-1.40;99.90;-1.90;96390.00;;;;5110396;28;21049;-83
2022/02/04 03:23:03;;;;;;;8.27;3.27;;;-1.40;99.90;-2.00;96390.00;;;;5110069;28;20519;-81
2022/02/04 03:25:58;;;;;;;8.13;3.80;;;-1.10;99.90;-2.20;96386.00;;;;5112335;28;20441;-84
2022/02/04 03:28:47;;;;;;;8.50;3.93;;;-1.40;99.90;-2.10;96386.00;;;;5112274;28;20491;-82
2022/02/04 03:31:41;;;;;;;3.03;2.60;;;-1.40;99.90;-2.20;96385.00;;;;5110928;28;20438;-82
2022/02/04 03:34:29;;;;;;;4.20;2.80;;;-1.40;99.90;-2.10;96383.00;;;;5109347;28;20968;-82
2022/02/04 03:37:18;;;;;;;4.00;2.50;;;-1.50;99.90;-2.10;96378.00;;;;5111440;28;20444;-84
2022/02/04 03:40:09;;;;;;;0.97;0.97;;;-1.40;99.90;-2.20;96377.00;;;;5101990;28;20429;-82
2022/02/04 03:42:59;;;;;;;5.33;3.70;;;-1.40;99.90;-1.90;96381.00;;;;5107272;28;20456;-82
2022/02/04 03:45:48;;;;;;;6.90;2.60;;;-0.90;99.90;-2.00;96383.00;;;;5111285;28;20445;-82
2022/02/04 03:48:37;;;;;;;6.73;3.57;;;0.50;99.90;-2.00;96389.00;;;;5110289;28;20457;-83
2022/02/04 03:51:26;;;;;;;7.03;2.83;;;-0.90;99.90;-2.00;96385.00;;;;5102895;28;20435;-82
2022/02/04 03:54:15;;;;;;;5.03;2.93;;;-0.80;99.90;-2.10;96388.00;;;;5102016;28;20499;-83
2022/02/04 03:57:04;;;;;;;7.17;4.53;;;-1.10;99.90;-2.10;96387.00;;;;5110681;28;20424;-82
2022/02/04 03:59:55;;;;;;;4.83;3.07;;;-1.40;99.90;-2.00;96392.00;;;;5110409;28;20429;-83
2022/02/04 04:02:44;;;;;;;4.13;3.20;;;-1.40;99.90;-2.00;96395.00;;;;5102648;28;20856;-82
2022/02/04 04:05:37;;;;;;;3.73;3.17;;;-1.30;99.90;-2.00;96394.00;;;;5104526;28;20432;-83
2022/02/04 04:08:25;;;;;;;3.23;2.93;;;-1.40;99.90;-1.90;96388.00;;;;5105370;28;20472;-83
2022/02/04 04:11:14;;;;;;;4.03;3.13;;;-1.30;99.90;-2.20;96382.00;;;;5104658;28;20488;-83
2022/02/04 04:14:04;;;;;;;3.37;2.93;;;-1.40;99.90;-2.40;96391.00;;;;5098647;28;20444;-81
2022/02/04 04:16:54;;;;;;;4.67;3.33;;;-1.50;99.90;-2.10;96392.00;;;;5105799;28;20441;-84
2022/02/04 04:19:43;;;;;;;4.43;2.83;;;-1.50;99.90;-2.00;96385.00;;;;5105410;28;20963;-83
2022/02/04 04:22:32;;;;;;;4.20;3.30;;;-1.50;99.90;-2.10;96384.00;;;;5110177;28;20451;-84
2022/02/04 04:25:21;;;;;;;4.10;3.20;;;-1.50;99.90;-2.10;96379.00;;;;5109658;28;20806;-82
2022/02/04 04:28:10;;;;;;;5.83;3.30;;;0.20;99.90;-2.00;96376.00;;;;5110432;28;20815;-82
2022/02/04 04:30:59;;;;;;;5.17;3.60;;;-0.90;99.90;-2.10;96379.00;;;;5108143;28;20429;-82
2022/02/04 04:33:49;;;;;;;6.77;4.13;;;-0.30;99.90;-2.30;96379.00;;;;5097185;28;20448;-83
2022/02/04 04:36:38;;;;;;;2.63;2.43;;;-1.50;99.90;-2.40;96377.00;;;;5096121;28;20808;-82
2022/02/04 04:39:33;;;;;;;3.47;2.57;;;-1.30;99.90;-2.20;96377.00;;;;5109265;28;20949;-82
2022/02/04 04:42:33;;;;;;;4.20;2.30;;;-1.50;99.90;-2.10;96387.00;;;;5118562;28;20436;-82
2022/02/04 04:45:57;;;;;;;6.83;3.40;;;-1.50;99.90;-2.10;96376.00;;;;5110249;28;20434;-82
2022/02/04 05:27:27;;;;;;;6.43;3.63;;;-1.10;99.90;-1.60;96376.00;;;;5102109;28;20636;-82
2022/02/04 05:30:07;;;;;;;4.73;2.77;;;0.00;99.90;-1.60;96369.00;;;;5106792;28;20475;-84
2022/02/04 05:33:03;;;;;;;4.80;3.77;;;-1.10;99.90;-1.60;96363.00;;;;5097709;28;20445;-82
2022/02/04 05:35:54;;;;;;;8.07;3.70;;;0.90;99.90;-1.50;96367.00;;;;5106866;28;20447;-83
2022/02/04 05:38:44;;;;;;;5.13;3.77;;;0.30;99.90;-1.30;96367.00;;;;5101068;28;20505;-84
2022/02/04 05:41:37;;;;;;;5.03;4.17;;;-1.00;99.90;-1.20;96365.00;;;;5108085;28;20421;-82
2022/02/04 05:44:26;;;;;;;3.90;2.80;;;-0.90;99.90;-1.40;96360.00;;;;5107556;28;20460;-83
2022/02/04 05:47:17;;;;;;;3.90;3.23;;;-0.80;99.90;-1.30;96370.00;;;;5114147;28;20425;-83
2022/02/04 05:50:15;;;;;;;4.40;2.47;;;-0.80;99.90;-1.50;96374.00;;;;5112977;28;20448;-83
2022/02/04 05:53:15;;;;;;;3.97;2.30;;;-0.80;99.90;-1.50;96368.00;;;;5105086;28;20452;-82
2022/02/04 05:56:14;;;;;;;4.97;2.67;;;-0.60;99.90;-1.40;96377.00;;;;5103874;28;20789;-83
2022/02/04 05:59:11;;;;;;;3.23;2.97;;;-0.80;99.90;-1.70;96377.00;;;;5109204;28;20425;-82
2022/02/04 06:02:08;;;;;;;3.90;2.57;;;-0.80;99.90;-1.40;96374.00;;;;5104127;28;20809;-82
2022/02/04 06:05:03;;;;;;;5.67;3.20;;;-0.90;99.90;-1.40;96385.00;;;;5105280;28;20448;-83
2022/02/04 06:08:17;;;;;;;3.90;2.40;;;-0.90;99.90;-1.60;96384.00;;;;5099095;28;20439;-82
2022/02/04 06:11:22;;;;;;;4.47;2.93;;;-0.90;99.90;-1.60;96393.00;;;;5101715;28;20425;-82
2022/02/04 06:23:31;;;;;;;3.77;2.67;;;-1.10;99.90;-1.80;96416.00;;;;5035874;28;20465;-82
2022/02/04 06:26:26;;;;;;;7.17;3.73;;;-0.80;99.90;-1.60;96410.00;;;;5098293;28;20459;-84
2022/02/04 06:29:16;;;;;;;2.60;2.37;;;0.40;99.90;-1.70;96415.00;;;;5100750;28;21012;-82
2022/02/04 06:32:06;;;;;;;2.60;2.40;;;-1.10;99.90;-1.70;96421.00;;;;5100996;28;20448;-82
2022/02/04 06:34:55;;;;;;;1.93;1.73;;;-1.10;99.90;-2.10;96420.00;;;;5102239;28;20444;-81
2022/02/04 06:37:44;;;;;;;2.70;2.03;;;0.60;99.90;-2.10;96427.00;;;;5104531;28;20452;-83
2022/02/04 06:40:33;;;;;;;3.00;2.70;;;-0.60;99.90;-1.80;96434.00;;;;5110051;28;20451;-82
2022/02/04 06:43:23;;;;;;;3.90;2.87;;;-1.20;99.90;-1.60;96438.00;;;;5114803;28;20492;-81
2022/02/04 06:46:13;;;;;;;3.60;3.17;;;-0.40;99.90;-1.30;96437.00;;;;5105559;28;20433;-82
2022/02/04 06:49:02;;;;;;;3.07;2.77;;;-0.60;99.90;-1.40;96449.00;;;;5100778;28;20564;-82
2022/02/04 06:51:51;;;;;;;2.67;1.97;;;-0.20;99.90;-2.10;96451.00;;;;5106429;28;20444;-82
2022/02/04 06:54:40;;;;;;;3.43;2.87;;;-1.00;99.90;-1.80;96455.00;;;;5103126;28;20441;-82
2022/02/04 06:57:29;;;;;;;4.53;2.90;;;-1.00;99.90;-1.40;96460.00;;;;5104960;28;20433;-83
2022/02/04 07:00:22;;;;;;;3.63;3.13;;;-1.00;99.90;-1.20;96470.00;;;;5103919;28;20433;-83
2022/02/04 07:03:10;;;;;;;2.83;2.07;;;-0.80;99.90;-1.30;96471.00;;;;5096226;28;20476;-83
2022/02/04 07:06:01;;;;;;;5.00;2.90;;;-0.80;99.90;-1.70;96460.00;;;;5102455;28;20836;-83
2022/02/04 07:09:11;;;;;;;2.40;2.20;;;-0.70;99.90;-1.70;96465.00;;;;5102946;28;20425;-82
2022/02/04 07:12:18;;;;;;;1.63;1.53;;;-0.90;99.90;-1.70;96465.00;;;;5105624;28;20432;-81
2022/02/04 07:21:18;;;;;;;7.30;3.83;;;-0.80;99.90;-1.60;96471.00;;;;5077810;28;20436;-82
2022/02/04 07:24:08;;;;;;;5.67;2.87;;;-0.80;99.90;-1.70;96468.00;;;;5097592;28;20453;-80
2022/02/04 07:26:57;;;;;;;6.37;4.60;;;-0.80;99.90;-1.70;96457.00;;;;5100522;28;20972;-81
2022/02/04 07:29:48;;;;;;;9.83;3.27;;;-0.80;99.90;-1.50;96470.00;;;;5102776;28;20506;-82
2022/02/04 07:32:43;;;;;;;3.70;2.63;;;-0.80;99.90;-1.40;96465.00;;;;5103195;28;20925;-81
2022/02/04 07:38:34;;;;;;;5.40;4.00;;;0.20;99.90;-1.30;96476.00;;;;5098142;28;20444;-81
2022/02/04 07:41:51;;;;;;;1.90;1.80;;;-0.60;99.90;-1.40;96462.00;;;;5099668;28;20459;-80
2022/02/04 07:44:40;;;;;;;2.60;2.20;;;-0.40;99.90;-1.40;96466.00;;;;5099962;28;20429;-83
2022/02/04 07:47:29;;;;;;;3.07;2.83;;;-0.40;99.90;-0.80;96479.00;;;;5095044;28;20479;-80
2022/02/04 07:50:20;;;;;;;4.93;3.47;;;-0.40;99.90;-0.60;96480.00;;;;5101120;28;20591;-79
2022/02/04 07:53:11;;;;;;;7.37;3.57;;;-0.20;99.90;-0.60;96479.00;;;;5111434;28;20525;-81
2022/02/04 07:56:00;;;;;;;3.60;2.80;;;-0.10;99.90;-0.70;96475.00;;;;5100738;28;20566;-82
2022/02/04 07:58:55;;;;;;;2.77;2.57;;;0.00;99.90;-0.80;96483.00;;;;5095652;28;20716;-82
2022/02/04 08:01:46;;;;;;;2.80;2.60;;;0.60;99.90;-0.60;96484.00;;;;5094249;28;20493;-80
2022/02/04 08:04:37;;;;;;;4.67;3.70;;;0.00;99.90;-0.40;96484.00;;;;5098282;28;20483;-83
2022/02/04 08:07:30;;;;;;;3.13;2.67;;;0.00;99.90;-0.30;96490.00;;;;5102322;28;20433;-81
2022/02/04 08:10:28;;;;;;;3.93;3.43;;;0.20;99.90;-0.40;96475.00;;;;5102464;28;20476;-81
2022/02/04 08:22:43;;;;;;;3.30;2.83;;;0.50;99.90;0.30;96489.00;;;;5074372;28;20429;-84
2022/02/04 08:26:02;;;;;;;5.13;3.87;;;0.70;99.90;0.10;96479.00;;;;5075958;28;20455;-83
2022/02/04 08:29:15;;;;;;;4.33;3.37;;;0.70;99.90;0.10;96478.00;;;;5093307;28;20450;-81
2022/02/04 08:32:25;;;;;;;3.70;2.60;;;0.80;99.90;0.00;96478.00;;;;5093125;28;20468;-83
2022/02/04 08:35:31;;;;;;;5.43;4.60;;;0.80;99.90;0.40;96503.00;;;;5090085;28;20489;-83
2022/02/04 08:38:33;;;;;;;5.60;4.10;;;0.80;99.90;0.60;96489.00;;;;5092870;28;20812;-84
2022/02/04 08:51:09;;;;;;;4.93;4.50;;;1.90;99.90;1.60;96501.00;;;;5088446;28;20472;-85
2022/02/04 08:57:09;;;;;;;5.70;4.40;;;1.90;99.90;1.80;96508.00;;;;5092095;28;20440;-82
2022/02/04 09:00:08;;;;;;;5.47;3.80;;;1.50;99.90;2.00;96506.00;;;;5091583;28;20425;-85
2022/02/04 09:03:01;;;;;;;4.83;4.07;;;2.20;99.90;2.10;96520.00;;;;5095297;28;20454;-85
2022/02/04 09:06:03;;;;;;;6.03;4.40;;;2.30;99.90;2.40;96515.00;;;;5098156;28;20532;-83
2022/02/04 09:08:53;;;;;;;10.00;4.77;;;2.40;99.90;2.90;96519.00;;;;5095779;28;20444;-82
2022/02/04 09:11:47;;;;;;;5.23;4.47;;;2.60;99.90;2.90;96527.00;;;;5100364;28;20481;-82
2022/02/04 09:18:32;;;;;;;4.63;4.23;;;3.00;99.90;3.10;96541.00;;;;5097816;28;20437;-81
2022/02/04 09:21:25;;;;;;;6.47;3.97;;;3.30;99.90;3.80;96539.00;;;;5097538;28;20429;-81
2022/02/04 09:24:15;;;;;;;5.63;4.43;;;3.40;99.90;4.20;96548.00;;;;5101615;28;20457;-83
2022/02/04 09:27:05;;;;;;;7.50;3.47;;;3.70;99.90;4.70;96542.00;;;;5105481;28;20211;-82
2022/02/04 09:29:55;;;;;;;7.83;4.30;;;4.00;99.90;5.00;96547.00;;;;5103128;28;20221;-81
2022/02/04 09:32:44;;;;;;;6.80;3.43;;;4.30;99.90;5.40;96551.00;;;;5100611;28;20254;-83
2022/02/04 09:35:34;;;;;;;10.77;3.80;;;4.60;99.90;5.40;96558.00;;;;5100912;28;20198;-81
2022/02/04 09:38:23;;;;;;;6.53;4.13;;;4.90;99.90;5.70;96555.00;;;;5101464;28;20683;-83
2022/02/04 09:41:12;;;;;;;5.40;3.77;;;5.20;99.90;6.00;96555.00;;;;5098280;28;20262;-83
2022/02/04 09:44:01;;;;;;;4.40;3.83;;;5.50;99.90;6.20;96557.00;;;;5101416;28;20315;-82
2022/02/04 09:46:55;;;;;;;4.83;3.43;;;5.70;99.90;6.40;96541.00;;;;5105597;28;20211;-84
2022/02/04 09:49:48;;;;;;;14.30;4.30;;;5.90;99.90;6.60;96554.00;;;;5107043;28;20222;-84
2022/02/04 10:06:13;;;;;;;5.57;3.50;;;6.80;99.90;7.60;96549.00;;;;5108570;28;20203;-82
2022/02/04 10:09:09;;;;;;;5.47;3.90;;;7.00;99.90;7.80;96544.00;;;;5112413;28;20211;-81
2022/02/04 10:12:26;;;;;;;6.47;3.50;;;7.20;99.90;7.90;96546.00;;;;5109438;28;20231;-82
2022/02/04 10:15:25;;;;;;;11.13;3.30;;;7.40;99.90;8.00;96545.00;;;;5107044;28;20206;-84
2022/02/04 10:18:27;;;;;;;4.47;3.07;;;7.50;99.90;8.30;96544.00;;;;5110200;28;20202;-82
2022/02/04 10:21:17;;;;;;;3.40;2.67;;;7.70;99.90;8.70;96547.00;;;;5115101;28;20202;-84
2022/02/04 10:24:07;;;;;;;4.67;2.80;;;8.00;99.90;8.70;96529.00;;;;5110857;28;20317;-82
2022/02/04 10:27:12;;;;;;;3.73;2.77;;;8.10;99.90;9.10;96528.00;;;;5114660;28;20218;-82
2022/02/04 10:30:06;;;;;;;4.13;2.60;;;8.30;99.90;9.20;96528.00;;;;5105473;28;20207;-83
2022/02/04 10:32:55;;;;;;;4.03;2.53;;;8.60;99.90;9.40;96521.00;;;;5106969;28;20242;-82
2022/02/04 10:35:50;;;;;;;6.60;2.93;;;8.80;99.90;9.30;96517.00;;;;5108620;28;20347;-80
2022/02/04 10:38:44;;;;;;;4.70;2.20;;;8.90;99.20;9.50;96506.00;;;;5108203;28;20203;-84
2022/02/04 10:41:40;;;;;;;4.93;2.80;;;9.10;96.70;10.10;96517.00;;;;5103865;28;20217;-83
2022/02/04 10:44:41;;;;;;;4.27;2.93;;;9.30;97.60;10.30;96513.00;;;;5106397;28;20226;-82
2022/02/04 10:47:40;;;;;;;3.70;2.30;;;9.70;95.40;10.60;96506.00;;;;5107895;28;20387;-83
2022/02/04 10:57:36;;;;;;;5.07;2.77;;;11.00;90.80;11.90;96501.00;;;;5109020;28;20232;-82
2022/02/04 11:00:28;;;;;;;6.23;2.63;;;11.40;90.40;11.50;96483.00;;;;5114256;28;20225;-82
2022/02/04 11:03:21;;;;;;;7.00;3.00;;;11.60;84.70;11.80;96493.00;;;;5108984;28;20339;-85
2022/02/04 11:06:33;;;;;;;5.63;3.13;;;11.70;83.20;12.70;96486.00;;;;5091441;28;20576;-85
2022/02/04 11:09:49;;;;;;;9.80;3.10;;;12.10;84.30;13.10;96483.00;;;;5092677;28;20210;-85
2022/02/04 11:48:14;;;;;;;7.73;2.47;;;14.50;66.90;15.20;96444.00;;;;5026868;28;20216;-66
2022/02/04 11:51:40;;;;;;;5.03;3.63;;;14.70;64.00;14.90;96457.00;;;;5025041;28;20311;-68
2022/02/04 11:54:44;;;;;;;7.23;2.47;;;15.10;62.20;15.60;96458.00;;;;5026481;28;20204;-66
2022/02/04 11:57:39;;;;;;;3.43;2.43;;;15.30;61.10;16.30;96455.00;;;;5022932;28;20539;-67
2022/02/04 12:00:31;;;;;;;3.10;2.00;;;15.50;62.40;15.70;96459.00;;;;5022462;28;20239;-68
2022/02/04 12:03:29;;;;;;;3.80;2.03;;;15.70;59.30;16.40;96466.00;;;;5027522;28;20318;-67
2022/02/04 12:06:29;;;;;;;2.37;1.70;;;16.00;59.30;17.00;96463.00;;;;5022326;28;20205;-65
2022/02/04 12:09:36;;;;;;;2.13;1.67;;;16.40;58.90;17.20;96462.00;;;;5019831;28;20212;-65
2022/02/04 12:13:08;;;;;;;5.33;1.90;;;16.70;57.80;18.20;96459.00;;;;5016650;28;20235;-66
2022/02/04 12:16:10;;;;;;;2.33;2.00;;;16.00;57.50;18.50;96456.00;;;;5024878;28;20231;-67
2022/02/04 12:19:11;;;;;;;4.33;2.13;;;17.60;56.70;18.60;96453.00;;;;5025025;28;20218;-66
2022/02/04 12:22:00;;;;;;;4.30;1.90;;;18.00;55.70;18.30;96442.00;;;;5023346;28;20805;-66
2022/02/04 12:24:50;;;;;;;2.60;1.83;;;18.40;54.20;18.80;96440.00;;;;5025776;28;20681;-66
2022/02/04 12:27:45;;;;;;;4.47;2.50;;;18.80;53.40;19.50;96445.00;;;;5027421;28;20365;-66
2022/02/04 12:30:40;;;;;;;2.93;2.43;;;19.20;52.80;20.20;96432.00;;;;5030940;28;20268;-66
2022/02/04 12:33:31;;;;;;;4.87;3.03;;;19.60;52.20;20.20;96421.00;;;;5031317;28;20273;-66
2022/02/04 12:36:23;;;;;;;3.73;1.87;;;19.90;51.50;19.80;96420.00;;;;5031197;28;20224;-67
2022/02/04 12:39:14;;;;;;;3.93;1.90;;;20.10;50.00;20.60;96425.00;;;;5029531;28;20214;-66
2022/02/04 12:42:06;;;;;;;4.80;2.40;;;20.60;49.50;21.30;96423.00;;;;5029057;28;20227;-66
2022/02/04 12:44:58;;;;;;;1.30;1.13;;;20.90;49.00;21.50;96417.00;;;;5029522;28;20244;-66
2022/02/04 12:47:52;;;;;;;6.97;1.85;;;21.20;47.20;21.40;96413.00;;;;5025645;28;20497;-66
2022/02/04 12:50:44;;;;;;;1.92;1.42;;;21.50;47.60;21.70;96401.00;;;;5028664;28;20318;-66
2022/02/04 12:53:40;;;;;;;2.10;1.70;;;21.80;47.00;21.50;96406.00;;;;5027970;28;20342;-66
2022/02/04 12:56:42;;;;;;;13.68;3.60;;;21.90;46.60;22.00;96398.00;;;;5029193;28;20428;-66
2022/02/04 12:59:54;;;;;;;3.72;2.40;;;22.00;46.10;21.70;96417.00;;;;5029600;28;20220;-67
2022/02/04 13:03:03;;;;;;;7.88;2.33;;;21.80;46.30;21.50;96417.00;;;;5034096;28;20233;-66
2022/02/04 13:09:23;;;;;;;3.53;1.90;;;21.50;46.20;19.50;96418.00;;;;5029385;28;20215;-66
2022/02/04 13:12:17;;;;;;;2.77;2.10;;;20.90;46.40;19.10;96399.00;;;;5029756;28;20224;-65
2022/02/04 13:15:13;;;;;;;3.33;1.80;;;20.20;47.50;19.70;96378.00;;;;5024798;28;21049;-66
2022/02/04 13:18:06;;;;;;;3.50;2.37;;;19.90;47.70;18.80;96392.00;;;;5028980;28;20213;-65
2022/02/04 13:20:58;;;;;;;5.33;2.43;;;19.90;48.10;18.80;96412.00;;;;5031232;28;20285;-66
2022/02/04 13:23:48;;;;;;;7.07;1.87;;;19.80;47.80;19.20;96389.00;;;;5029611;28;20236;-66
2022/02/04 13:26:37;;;;;;;4.97;1.87;;;19.70;48.30;19.50;96387.00;;;;5029198;28;20431;-65
2022/02/04 13:29:28;;;;;;;4.30;2.13;;;19.70;47.40;19.50;96393.00;;;;5031225;28;20223;-66
2022/02/04 13:32:25;;;;;;;4.80;1.90;;;19.80;47.10;19.40;96417.00;;;;5032014;28;20467;-67
2022/02/04 13:35:30;;;;;;;6.47;2.57;;;19.60;47.70;17.40;96389.00;;;;5030374;28;20217;-67
2022/02/04 13:38:31;;;;;;;3.83;2.07;;;19.00;47.20;16.40;96408.00;;;;5029480;28;20274;-66
2022/02/04 13:41:34;;;;;;;6.00;2.17;;;18.40;48.70;15.90;96394.00;;;;5031344;28;20247;-66
2022/02/04 13:44:33;;;;;;;6.63;3.20;;;17.60;50.00;15.60;96392.00;;;;5032943;28;20257;-65
2022/02/04 13:47:34;;;;;;;3.83;2.70;;;16.70;50.30;16.10;96400.00;;;;5032955;28;20215;-66
2022/02/04 13:50:38;;;;;;;5.70;2.60;;;16.40;50.70;16.00;96411.00;;;;5032028;28;20585;-67
2022/02/04 13:53:36;;;;;;;2.23;2.03;;;16.10;51.60;15.70;96421.00;;;;5036046;28;20204;-66
2022/02/04 13:56:43;;;;;;;4.23;2.00;;;15.80;52.00;15.80;96408.00;;;;5030805;28;20813;-66
2022/02/04 13:59:40;;;;;;;6.40;2.00;;;15.60;52.20;15.80;96389.00;;;;5027705;28;20213;-66
2022/02/04 14:02:39;;;;;;;4.73;2.20;;;15.50;53.10;16.40;96392.00;;;;5033376;28;20236;-67
2022/02/04 14:05:40;;;;;;;3.77;2.53;;;15.70;52.70;16.50;96381.00;;;;5027819;28;20212;-66
2022/02/04 14:08:44;;;;;;;4.70;2.27;;;16.30;52.00;17.80;96385.00;;;;5029363;28;20269;-66
2022/02/04 14:11:39;;;;;;;2.93;2.30;;;16.80;51.10;18.30;96404.00;;;;5030727;28;20312;-66
2022/02/04 14:14:32;;;;;;;5.57;2.20;;;17.50;50.50;17.50;96410.00;;;;5029969;28;20212;-66
2022/02/04 14:17:29;;;;;;;17.10;3.53;;;17.90;49.40;18.40;96402.00;;;;5029055;28;20285;-67
2022/02/04 14:20:22;;;;;;;4.20;3.00;;;18.20;49.20;18.40;96404.00;;;;5030936;28;20311;-66
2022/02/04 14:23:14;;;;;;;7.67;2.83;;;18.30;48.90;19.30;96404.00;;;;5028681;28;20228;-67
2022/02/04 14:26:11;;;;;;;4.33;2.40;;;18.60;49.10;19.00;96421.00;;;;5026411;28;20711;-66
2022/02/04 14:29:07;;;;;;;4.03;1.97;;;18.70;49.00;18.80;96397.00;;;;5026753;28;20208;-66
2022/02/04 14:32:04;;;;;;;4.33;2.73;;;19.10;48.90;18.90;96406.00;;;;5025922;28;20228;-66
2022/02/04 14:35:09;;;;;;;7.20;2.70;;;18.70;48.60;19.40;96402.00;;;;5027786;28;20212;-66
2022/02/04 14:51:07;;;;;;;2.50;2.07;;;18.90;47.80;17.80;96412.00;;;;5027601;28;20687;-68
2022/02/04 14:54:07;;;;;;;2.93;2.50;;;18.90;47.40;18.50;96411.00;;;;5025424;28;20208;-66
2022/02/04 15:00:32;;;;;;;15.10;7.87;;;18.70;47.70;18.50;96426.00;;;;5017294;28;20213;-66
2022/02/04 15:03:31;;;;;;;6.93;3.60;;;18.70;47.90;19.10;96426.00;;;;5023749;28;20255;-66
2022/02/04 15:06:28;;;;;;;4.83;2.70;;;18.90;48.00;19.10;96423.00;;;;5025479;28;20302;-66
2022/02/04 15:09:22;;;;;;;8.30;5.87;;;19.10;47.50;18.90;96425.00;;;;5023518;28;20216;-65
2022/02/04 15:12:17;;;;;;;5.37;2.53;;;19.10;47.10;19.10;96426.00;;;;5030333;28;20243;-66
2022/02/04 15:15:07;;;;;;;17.10;5.10;;;19.20;47.00;19.20;96425.00;;;;5024368;28;20212;-66
2022/02/04 15:17:57;;;;;;;3.20;2.30;;;19.40;46.80;17.70;96474.00;;;;5025142;28;20204;-66
2022/02/04 15:20:52;;;;;;;6.30;3.33;;;19.10;46.30;15.90;96460.00;;;;5025594;28;20239;-65
2022/02/04 15:23:48;;;;;;;2.75;2.20;;;18.10;47.30;14.20;96451.00;;;;5026668;28;20233;-66
2022/02/04 15:26:39;;;;;;;12.67;4.20;;;16.90;49.40;13.00;96446.00;;;;5025812;28;20229;-65
2022/02/04 15:29:34;;;;;;;7.70;3.33;;;15.40;51.30;12.60;96454.00;;;;5025523;28;20270;-65
2022/02/04 15:32:25;;;;;;;4.50;2.40;;;14.40;53.00;12.10;96447.00;;;;5031263;28;20610;-64
2022/02/04 15:35:16;;;;;;;6.13;2.30;;;13.50;54.80;11.50;96443.00;;;;5024237;28;20608;-65
2022/02/04 15:38:08;;;;;;;9.20;3.03;;;13.00;55.50;11.10;96437.00;;;;5026055;28;20719;-64
2022/02/04 15:40:59;;;;;;;3.37;2.40;;;12.10;56.80;9.10;96427.00;;;;5021570;28;20233;-64
2022/02/04 15:43:54;;;;;;;3.30;2.50;;;11.30;58.50;9.30;96427.00;;;;5023195;28;20250;-63
2022/02/04 15:47:06;;;;;;;9.33;2.53;;;10.60;59.90;8.80;96430.00;;;;5024922;28;20212;-64
2022/02/04 15:50:19;;;;;;;3.37;3.07;;;10.00;62.60;8.20;96430.00;;;;5029641;28;20261;-64
2022/02/04 15:53:21;;;;;;;4.27;3.10;;;9.40;65.00;8.00;96431.00;;;;5031179;28;20220;-63
2022/02/04 15:56:28;;;;;;;10.63;3.73;;;8.90;67.40;7.60;96439.00;;;;5026466;28;20270;-64
2022/02/04 16:02:40;;;;;;;7.43;4.50;;;8.10;71.80;7.00;96436.00;;;;5005070;28;20274;-63
2022/02/04 16:05:35;;;;;;;6.63;5.00;;;7.80;74.10;6.30;96432.00;;;;5023528;28;20216;-65
2022/02/04 16:08:26;;;;;;;6.27;4.30;;;7.40;76.30;6.60;96435.00;;;;5030273;28;20309;-65
2022/02/04 16:11:32;;;;;;;6.10;3.90;;;7.20;77.90;6.80;96440.00;;;;5024155;28;20653;-65
2022/02/04 16:14:28;;;;;;;3.63;3.20;;;7.00;78.40;6.80;96432.00;;;;5030454;28;20227;-65
2022/02/04 16:17:31;;;;;;;2.53;2.17;;;6.90;80.10;6.50;96436.00;;;;5024938;28;20243;-65
2022/02/04 16:20:37;;;;;;;4.03;2.67;;;6.80;80.80;6.30;96439.00;;;;5027748;28;20205;-64
2022/02/04 16:23:33;;;;;;;5.07;3.50;;;6.70;81.90;6.00;96435.00;;;;5027526;28;20247;-64
2022/02/04 16:26:47;;;;;;;6.47;3.37;;;6.60;83.30;5.90;96433.00;;;;5030156;28;20212;-65
2022/02/04 16:29:43;;;;;;;4.97;3.33;;;6.40;84.70;6.00;96434.00;;;;5023598;28;20216;-64
2022/02/04 16:32:36;;;;;;;3.10;2.77;;;6.30;85.90;5.90;96447.00;;;;5026412;28;20227;-64
2022/02/04 16:35:28;;;;;;;6.83;6.20;;;6.20;86.70;5.80;96436.00;;;;5031400;28;20207;-62
2022/02/04 16:38:20;;;;;;;13.40;3.07;;;6.10;88.10;5.40;96431.00;;;;5028216;28;20217;-63
2022/02/04 16:41:19;;;;;;;7.53;3.40;;;6.10;90.00;5.30;96441.00;;;;5024885;28;20359;-64
2022/02/04 16:44:15;;;;;;;9.83;3.37;;;5.90;90.60;5.10;96436.00;;;;5022224;28;20224;-61
2022/02/04 16:47:07;;;;;;;5.20;3.27;;;5.80;91.50;5.20;96435.00;;;;5025500;28;20212;-63
2022/02/04 16:50:01;;;;;;;9.63;4.47;;;5.60;92.20;4.90;96446.00;;;;5022201;28;20213;-64
2022/02/04 16:52:52;;;;;;;5.00;3.10;;;5.50;93.20;5.00;96447.00;;;;5023031;28;20217;-61
2022/02/04 16:55:42;;;;;;;4.63;3.30;;;5.40;93.90;5.20;96444.00;;;;5027872;28;20644;-63